sensor_id;sensor_type;location;lat;lon;timestamp;P1;durP1;ratioP1;P2;durP2;ratioP2
64291;SDS011;50628;51.008;13.658;2022-07-29T00:04:32;6.60;;;1.53;;
64291;SDS011;50628;51.008;13.658;2022-07-29T00:09:35;6.30;;;1.23;;
64291;SDS011;50628;51.008;13.658;2022-07-29T00:14:37;4.20;;;1.23;;
64291;SDS011;50628;51.008;13.658;2022-07-29T00:19:40;6.33;;;1.60;;
64291;SDS011;50628;51.008;13.658;2022-07-29T00:24:42;9.90;;;1.40;;
64291;SDS011;50628;51.008;13.658;2022-07-29T00:29:43;2.93;;;1.37;;
64291;SDS011;50628;51.008;13.658;2022-07-29T00:34:46;3.70;;;1.63;;
64291;SDS011;50628;51.008;13.658;2022-07-29T00:40:06;4.73;;;1.40;;
64291;SDS011;50628;51.008;13.658;2022-07-29T00:45:09;5.67;;;1.60;;
64291;SDS011;50628;51.008;13.658;2022-07-29T00:50:13;8.57;;;1.77;;
64291;SDS011;50628;51.008;13.658;2022-07-29T00:55:15;5.47;;;1.70;;
64291;SDS011;50628;51.008;13.658;2022-07-29T01:00:19;7.30;;;1.90;;
64291;SDS011;50628;51.008;13.658;2022-07-29T01:05:24;7.03;;;1.67;;
64291;SDS011;50628;51.008;13.658;2022-07-29T01:10:27;3.93;;;1.70;;
64291;SDS011;50628;51.008;13.658;2022-07-29T01:15:30;5.83;;;1.23;;
64291;SDS011;50628;51.008;13.658;2022-07-29T01:20:38;9.97;;;1.37;;
64291;SDS011;50628;51.008;13.658;2022-07-29T01:25:57;4.17;;;1.70;;
64291;SDS011;50628;51.008;13.658;2022-07-29T01:31:06;4.57;;;2.10;;
64291;SDS011;50628;51.008;13.658;2022-07-29T01:36:11;8.83;;;2.40;;
64291;SDS011;50628;51.008;13.658;2022-07-29T01:41:18;5.20;;;1.97;;
64291;SDS011;50628;51.008;13.658;2022-07-29T01:46:25;7.83;;;2.33;;
64291;SDS011;50628;51.008;13.658;2022-07-29T01:51:33;6.83;;;3.07;;
64291;SDS011;50628;51.008;13.658;2022-07-29T01:56:39;7.93;;;2.63;;
64291;SDS011;50628;51.008;13.658;2022-07-29T02:01:46;4.07;;;2.20;;
64291;SDS011;50628;51.008;13.658;2022-07-29T02:06:51;7.30;;;3.33;;
64291;SDS011;50628;51.008;13.658;2022-07-29T02:11:54;10.60;;;3.57;;
64291;SDS011;50628;51.008;13.658;2022-07-29T02:16:58;9.40;;;4.23;;
64291;SDS011;50628;51.008;13.658;2022-07-29T02:22:02;10.50;;;4.47;;
64291;SDS011;50628;51.008;13.658;2022-07-29T02:27:06;13.17;;;4.87;;
64291;SDS011;50628;51.008;13.658;2022-07-29T02:32:10;14.03;;;4.50;;
64291;SDS011;50628;51.008;13.658;2022-07-29T02:37:15;8.23;;;3.70;;
64291;SDS011;50628;51.008;13.658;2022-07-29T02:42:21;6.50;;;3.47;;
64291;SDS011;50628;51.008;13.658;2022-07-29T02:47:27;8.10;;;3.23;;
64291;SDS011;50628;51.008;13.658;2022-07-29T02:52:37;7.83;;;3.17;;
64291;SDS011;50628;51.008;13.658;2022-07-29T02:57:43;8.77;;;3.97;;
64291;SDS011;50628;51.008;13.658;2022-07-29T03:02:49;9.23;;;4.43;;
64291;SDS011;50628;51.008;13.658;2022-07-29T03:07:54;9.77;;;2.90;;
64291;SDS011;50628;51.008;13.658;2022-07-29T03:12:58;11.00;;;3.83;;
64291;SDS011;50628;51.008;13.658;2022-07-29T03:18:02;13.53;;;4.80;;
64291;SDS011;50628;51.008;13.658;2022-07-29T03:23:06;14.60;;;4.83;;
64291;SDS011;50628;51.008;13.658;2022-07-29T03:28:09;8.77;;;4.13;;
64291;SDS011;50628;51.008;13.658;2022-07-29T03:33:12;7.83;;;3.97;;
64291;SDS011;50628;51.008;13.658;2022-07-29T03:38:14;12.30;;;5.80;;
64291;SDS011;50628;51.008;13.658;2022-07-29T03:43:16;10.43;;;5.67;;
64291;SDS011;50628;51.008;13.658;2022-07-29T03:48:21;10.77;;;5.80;;
64291;SDS011;50628;51.008;13.658;2022-07-29T03:53:25;11.27;;;6.27;;
64291;SDS011;50628;51.008;13.658;2022-07-29T03:58:27;8.00;;;4.37;;
64291;SDS011;50628;51.008;13.658;2022-07-29T04:03:32;10.63;;;4.13;;
64291;SDS011;50628;51.008;13.658;2022-07-29T04:08:35;11.60;;;5.27;;
64291;SDS011;50628;51.008;13.658;2022-07-29T04:13:37;17.13;;;6.90;;
64291;SDS011;50628;51.008;13.658;2022-07-29T04:18:40;15.57;;;7.70;;
64291;SDS011;50628;51.008;13.658;2022-07-29T04:23:42;16.17;;;7.70;;
64291;SDS011;50628;51.008;13.658;2022-07-29T04:28:45;13.03;;;6.87;;
64291;SDS011;50628;51.008;13.658;2022-07-29T04:33:48;12.73;;;8.20;;
64291;SDS011;50628;51.008;13.658;2022-07-29T04:38:50;15.23;;;8.47;;
64291;SDS011;50628;51.008;13.658;2022-07-29T04:43:52;15.33;;;8.07;;
64291;SDS011;50628;51.008;13.658;2022-07-29T04:48:55;16.33;;;6.67;;
64291;SDS011;50628;51.008;13.658;2022-07-29T04:53:57;40.93;;;9.37;;
64291;SDS011;50628;51.008;13.658;2022-07-29T04:58:59;27.07;;;8.00;;
64291;SDS011;50628;51.008;13.658;2022-07-29T05:04:03;24.23;;;8.97;;
64291;SDS011;50628;51.008;13.658;2022-07-29T05:09:05;15.03;;;5.53;;
64291;SDS011;50628;51.008;13.658;2022-07-29T05:14:06;19.00;;;6.60;;
64291;SDS011;50628;51.008;13.658;2022-07-29T05:19:09;21.37;;;7.90;;
64291;SDS011;50628;51.008;13.658;2022-07-29T05:24:11;16.87;;;8.97;;
64291;SDS011;50628;51.008;13.658;2022-07-29T05:29:13;20.23;;;10.67;;
64291;SDS011;50628;51.008;13.658;2022-07-29T05:34:16;19.73;;;11.67;;
64291;SDS011;50628;51.008;13.658;2022-07-29T05:39:19;27.83;;;11.73;;
64291;SDS011;50628;51.008;13.658;2022-07-29T05:44:20;31.93;;;13.00;;
64291;SDS011;50628;51.008;13.658;2022-07-29T05:49:23;22.80;;;12.23;;
64291;SDS011;50628;51.008;13.658;2022-07-29T05:54:25;25.63;;;11.27;;
64291;SDS011;50628;51.008;13.658;2022-07-29T05:59:27;21.90;;;10.67;;
64291;SDS011;50628;51.008;13.658;2022-07-29T06:04:30;21.93;;;10.03;;
64291;SDS011;50628;51.008;13.658;2022-07-29T06:09:32;19.90;;;10.80;;
64291;SDS011;50628;51.008;13.658;2022-07-29T06:14:34;27.10;;;12.90;;
64291;SDS011;50628;51.008;13.658;2022-07-29T06:19:39;35.63;;;13.65;;
64291;SDS011;50628;51.008;13.658;2022-07-29T06:24:41;29.08;;;16.52;;
64291;SDS011;50628;51.008;13.658;2022-07-29T06:29:44;34.08;;;16.80;;
64291;SDS011;50628;51.008;13.658;2022-07-29T06:34:47;38.63;;;17.95;;
64291;SDS011;50628;51.008;13.658;2022-07-29T06:39:48;28.90;;;20.90;;
64291;SDS011;50628;51.008;13.658;2022-07-29T06:45:11;36.00;;;21.58;;
64291;SDS011;50628;51.008;13.658;2022-07-29T06:50:14;35.95;;;22.52;;
64291;SDS011;50628;51.008;13.658;2022-07-29T06:55:16;44.03;;;28.48;;
64291;SDS011;50628;51.008;13.658;2022-07-29T07:00:19;61.25;;;33.90;;
64291;SDS011;50628;51.008;13.658;2022-07-29T07:05:22;66.63;;;38.28;;
64291;SDS011;50628;51.008;13.658;2022-07-29T07:10:24;63.83;;;39.03;;
64291;SDS011;50628;51.008;13.658;2022-07-29T07:15:26;67.13;;;40.10;;
64291;SDS011;50628;51.008;13.658;2022-07-29T07:20:29;72.75;;;41.42;;
64291;SDS011;50628;51.008;13.658;2022-07-29T07:25:31;62.92;;;42.47;;
64291;SDS011;50628;51.008;13.658;2022-07-29T07:30:33;70.72;;;42.55;;
64291;SDS011;50628;51.008;13.658;2022-07-29T07:35:36;71.20;;;43.08;;
64291;SDS011;50628;51.008;13.658;2022-07-29T07:40:38;67.90;;;43.58;;
64291;SDS011;50628;51.008;13.658;2022-07-29T07:45:40;65.22;;;42.08;;
64291;SDS011;50628;51.008;13.658;2022-07-29T07:50:43;65.78;;;44.33;;
64291;SDS011;50628;51.008;13.658;2022-07-29T07:55:45;74.53;;;46.60;;
64291;SDS011;50628;51.008;13.658;2022-07-29T08:00:47;83.13;;;44.05;;
64291;SDS011;50628;51.008;13.658;2022-07-29T08:05:50;69.28;;;45.58;;
64291;SDS011;50628;51.008;13.658;2022-07-29T08:10:54;65.50;;;46.17;;
64291;SDS011;50628;51.008;13.658;2022-07-29T08:15:57;73.25;;;48.42;;
64291;SDS011;50628;51.008;13.658;2022-07-29T08:21:02;69.65;;;45.55;;
64291;SDS011;50628;51.008;13.658;2022-07-29T08:26:04;73.10;;;48.20;;
64291;SDS011;50628;51.008;13.658;2022-07-29T08:31:10;66.28;;;39.67;;
64291;SDS011;50628;51.008;13.658;2022-07-29T08:36:14;54.85;;;33.83;;
64291;SDS011;50628;51.008;13.658;2022-07-29T08:41:16;49.25;;;31.27;;
64291;SDS011;50628;51.008;13.658;2022-07-29T08:46:19;41.40;;;26.05;;
64291;SDS011;50628;51.008;13.658;2022-07-29T08:51:23;40.88;;;22.60;;
64291;SDS011;50628;51.008;13.658;2022-07-29T08:56:27;31.20;;;21.00;;
64291;SDS011;50628;51.008;13.658;2022-07-29T09:01:32;32.20;;;19.15;;
64291;SDS011;50628;51.008;13.658;2022-07-29T09:06:37;31.55;;;17.38;;
64291;SDS011;50628;51.008;13.658;2022-07-29T09:11:43;31.75;;;16.45;;
64291;SDS011;50628;51.008;13.658;2022-07-29T09:16:49;27.67;;;14.07;;
64291;SDS011;50628;51.008;13.658;2022-07-29T09:21:55;24.00;;;12.82;;
64291;SDS011;50628;51.008;13.658;2022-07-29T09:26:58;22.45;;;12.02;;
64291;SDS011;50628;51.008;13.658;2022-07-29T09:32:00;19.15;;;13.95;;
64291;SDS011;50628;51.008;13.658;2022-07-29T09:37:05;19.63;;;11.82;;
64291;SDS011;50628;51.008;13.658;2022-07-29T09:42:07;24.17;;;12.27;;
64291;SDS011;50628;51.008;13.658;2022-07-29T09:47:09;24.30;;;13.27;;
64291;SDS011;50628;51.008;13.658;2022-07-29T09:52:12;27.38;;;13.93;;
64291;SDS011;50628;51.008;13.658;2022-07-29T09:57:24;21.30;;;13.70;;
64291;SDS011;50628;51.008;13.658;2022-07-29T10:02:28;24.30;;;12.18;;
64291;SDS011;50628;51.008;13.658;2022-07-29T10:07:44;21.15;;;13.75;;
64291;SDS011;50628;51.008;13.658;2022-07-29T10:12:50;24.27;;;13.85;;
64291;SDS011;50628;51.008;13.658;2022-07-29T10:17:55;21.67;;;14.73;;
64291;SDS011;50628;51.008;13.658;2022-07-29T10:22:58;30.45;;;17.75;;
64291;SDS011;50628;51.008;13.658;2022-07-29T10:28:01;18.75;;;10.10;;
64291;SDS011;50628;51.008;13.658;2022-07-29T10:33:08;15.35;;;10.63;;
64291;SDS011;50628;51.008;13.658;2022-07-29T10:43:45;10.98;;;6.07;;
64291;SDS011;50628;51.008;13.658;2022-07-29T10:54:11;10.88;;;5.25;;
64291;SDS011;50628;51.008;13.658;2022-07-29T10:59:23;32.58;;;9.18;;
64291;SDS011;50628;51.008;13.658;2022-07-29T11:10:21;11.00;;;4.43;;
64291;SDS011;50628;51.008;13.658;2022-07-29T11:15:24;18.85;;;7.25;;
64291;SDS011;50628;51.008;13.658;2022-07-29T11:20:33;4.63;;;1.77;;
64291;SDS011;50628;51.008;13.658;2022-07-29T11:25:38;5.43;;;1.92;;
64291;SDS011;50628;51.008;13.658;2022-07-29T11:30:50;4.93;;;1.58;;
64291;SDS011;50628;51.008;13.658;2022-07-29T11:36:06;7.20;;;1.15;;
64291;SDS011;50628;51.008;13.658;2022-07-29T11:41:23;8.95;;;1.95;;
64291;SDS011;50628;51.008;13.658;2022-07-29T11:46:42;3.38;;;1.27;;
64291;SDS011;50628;51.008;13.658;2022-07-29T11:51:52;3.58;;;1.08;;
64291;SDS011;50628;51.008;13.658;2022-07-29T11:56:56;7.22;;;1.35;;
64291;SDS011;50628;51.008;13.658;2022-07-29T12:01:58;4.38;;;1.58;;
64291;SDS011;50628;51.008;13.658;2022-07-29T12:07:02;4.88;;;1.63;;
64291;SDS011;50628;51.008;13.658;2022-07-29T12:12:05;4.97;;;1.73;;
64291;SDS011;50628;51.008;13.658;2022-07-29T12:17:08;6.07;;;1.67;;
64291;SDS011;50628;51.008;13.658;2022-07-29T12:22:27;8.05;;;1.55;;
64291;SDS011;50628;51.008;13.658;2022-07-29T12:27:32;3.15;;;1.75;;
64291;SDS011;50628;51.008;13.658;2022-07-29T12:32:35;3.97;;;1.55;;
64291;SDS011;50628;51.008;13.658;2022-07-29T12:37:38;5.85;;;1.40;;
64291;SDS011;50628;51.008;13.658;2022-07-29T12:42:43;7.05;;;1.60;;
64291;SDS011;50628;51.008;13.658;2022-07-29T12:48:10;4.57;;;1.42;;
64291;SDS011;50628;51.008;13.658;2022-07-29T12:53:12;3.92;;;1.30;;
64291;SDS011;50628;51.008;13.658;2022-07-29T12:58:26;4.95;;;1.90;;
64291;SDS011;50628;51.008;13.658;2022-07-29T13:03:29;3.58;;;1.60;;
64291;SDS011;50628;51.008;13.658;2022-07-29T13:08:57;3.00;;;1.40;;
64291;SDS011;50628;51.008;13.658;2022-07-29T13:14:02;10.13;;;1.58;;
64291;SDS011;50628;51.008;13.658;2022-07-29T13:19:05;4.53;;;1.20;;
64291;SDS011;50628;51.008;13.658;2022-07-29T13:24:11;4.45;;;1.35;;
64291;SDS011;50628;51.008;13.658;2022-07-29T13:29:14;3.72;;;1.13;;
64291;SDS011;50628;51.008;13.658;2022-07-29T13:34:16;5.05;;;1.83;;
64291;SDS011;50628;51.008;13.658;2022-07-29T13:39:19;3.95;;;1.60;;
64291;SDS011;50628;51.008;13.658;2022-07-29T13:44:22;5.03;;;1.33;;
64291;SDS011;50628;51.008;13.658;2022-07-29T13:49:24;5.25;;;1.90;;
64291;SDS011;50628;51.008;13.658;2022-07-29T13:54:26;5.50;;;1.60;;
64291;SDS011;50628;51.008;13.658;2022-07-29T13:59:29;11.20;;;1.50;;
64291;SDS011;50628;51.008;13.658;2022-07-29T14:04:31;3.88;;;1.23;;
64291;SDS011;50628;51.008;13.658;2022-07-29T14:09:33;5.35;;;1.25;;
64291;SDS011;50628;51.008;13.658;2022-07-29T14:14:36;4.50;;;1.30;;
64291;SDS011;50628;51.008;13.658;2022-07-29T14:19:38;5.47;;;1.65;;
64291;SDS011;50628;51.008;13.658;2022-07-29T14:24:40;3.65;;;1.00;;
64291;SDS011;50628;51.008;13.658;2022-07-29T14:29:43;1.77;;;1.20;;
64291;SDS011;50628;51.008;13.658;2022-07-29T14:34:45;3.80;;;0.95;;
64291;SDS011;50628;51.008;13.658;2022-07-29T14:39:46;5.05;;;1.23;;
64291;SDS011;50628;51.008;13.658;2022-07-29T14:44:49;3.22;;;1.20;;
64291;SDS011;50628;51.008;13.658;2022-07-29T14:49:51;2.38;;;1.08;;
64291;SDS011;50628;51.008;13.658;2022-07-29T14:54:53;1.42;;;1.00;;
64291;SDS011;50628;51.008;13.658;2022-07-29T14:59:56;3.35;;;1.00;;
64291;SDS011;50628;51.008;13.658;2022-07-29T15:04:58;5.68;;;1.15;;
64291;SDS011;50628;51.008;13.658;2022-07-29T15:09:59;5.45;;;1.58;;
64291;SDS011;50628;51.008;13.658;2022-07-29T15:15:04;2.50;;;1.20;;
64291;SDS011;50628;51.008;13.658;2022-07-29T15:20:07;3.40;;;1.13;;
64291;SDS011;50628;51.008;13.658;2022-07-29T15:25:11;6.78;;;1.80;;
64291;SDS011;50628;51.008;13.658;2022-07-29T15:30:15;5.88;;;2.30;;
64291;SDS011;50628;51.008;13.658;2022-07-29T15:35:17;5.65;;;1.80;;
64291;SDS011;50628;51.008;13.658;2022-07-29T15:40:19;6.47;;;1.42;;
64291;SDS011;50628;51.008;13.658;2022-07-29T15:45:22;5.45;;;1.60;;
64291;SDS011;50628;51.008;13.658;2022-07-29T15:50:24;3.67;;;1.80;;
64291;SDS011;50628;51.008;13.658;2022-07-29T15:55:26;5.80;;;1.50;;
64291;SDS011;50628;51.008;13.658;2022-07-29T16:00:29;8.45;;;1.85;;
64291;SDS011;50628;51.008;13.658;2022-07-29T16:05:31;8.88;;;2.08;;
64291;SDS011;50628;51.008;13.658;2022-07-29T16:10:33;10.00;;;3.20;;
64291;SDS011;50628;51.008;13.658;2022-07-29T16:15:37;10.98;;;2.35;;
64291;SDS011;50628;51.008;13.658;2022-07-29T16:20:39;8.73;;;1.90;;
64291;SDS011;50628;51.008;13.658;2022-07-29T16:25:41;7.57;;;2.30;;
64291;SDS011;50628;51.008;13.658;2022-07-29T16:30:44;9.15;;;2.20;;
64291;SDS011;50628;51.008;13.658;2022-07-29T16:35:46;6.15;;;2.55;;
64291;SDS011;50628;51.008;13.658;2022-07-29T16:40:48;4.65;;;1.98;;
64291;SDS011;50628;51.008;13.658;2022-07-29T16:45:51;9.18;;;2.15;;
64291;SDS011;50628;51.008;13.658;2022-07-29T16:50:53;6.57;;;2.20;;
64291;SDS011;50628;51.008;13.658;2022-07-29T16:55:55;8.60;;;3.42;;
64291;SDS011;50628;51.008;13.658;2022-07-29T17:00:58;4.50;;;2.63;;
64291;SDS011;50628;51.008;13.658;2022-07-29T17:06:00;5.03;;;3.83;;
64291;SDS011;50628;51.008;13.658;2022-07-29T17:11:01;11.85;;;5.40;;
64291;SDS011;50628;51.008;13.658;2022-07-29T17:16:05;11.60;;;4.97;;
64291;SDS011;50628;51.008;13.658;2022-07-29T17:21:06;12.23;;;5.38;;
64291;SDS011;50628;51.008;13.658;2022-07-29T17:26:08;11.13;;;6.18;;
64291;SDS011;50628;51.008;13.658;2022-07-29T17:31:11;9.75;;;6.63;;
64291;SDS011;50628;51.008;13.658;2022-07-29T17:36:13;13.18;;;6.65;;
64291;SDS011;50628;51.008;13.658;2022-07-29T17:41:24;7.85;;;5.80;;
64291;SDS011;50628;51.008;13.658;2022-07-29T17:46:27;6.07;;;2.75;;
64291;SDS011;50628;51.008;13.658;2022-07-29T17:51:29;10.13;;;3.33;;
64291;SDS011;50628;51.008;13.658;2022-07-29T17:56:31;8.73;;;3.13;;
64291;SDS011;50628;51.008;13.658;2022-07-29T18:01:34;22.20;;;2.75;;
64291;SDS011;50628;51.008;13.658;2022-07-29T18:06:36;16.23;;;3.25;;
64291;SDS011;50628;51.008;13.658;2022-07-29T18:11:39;16.70;;;3.03;;
64291;SDS011;50628;51.008;13.658;2022-07-29T18:16:42;8.70;;;2.58;;
64291;SDS011;50628;51.008;13.658;2022-07-29T18:21:44;10.93;;;2.78;;
64291;SDS011;50628;51.008;13.658;2022-07-29T18:26:45;13.27;;;4.70;;
64291;SDS011;50628;51.008;13.658;2022-07-29T18:31:48;13.57;;;3.58;;
64291;SDS011;50628;51.008;13.658;2022-07-29T18:36:50;7.85;;;2.92;;
64291;SDS011;50628;51.008;13.658;2022-07-29T18:41:52;14.60;;;3.58;;
64291;SDS011;50628;51.008;13.658;2022-07-29T18:46:56;10.43;;;2.80;;
64291;SDS011;50628;51.008;13.658;2022-07-29T18:51:57;10.20;;;2.65;;
64291;SDS011;50628;51.008;13.658;2022-07-29T18:56:59;11.80;;;4.00;;
64291;SDS011;50628;51.008;13.658;2022-07-29T19:02:02;5.80;;;2.95;;
64291;SDS011;50628;51.008;13.658;2022-07-29T19:07:04;8.30;;;3.03;;
64291;SDS011;50628;51.008;13.658;2022-07-29T19:12:06;8.38;;;3.20;;
64291;SDS011;50628;51.008;13.658;2022-07-29T19:17:09;8.43;;;3.17;;
64291;SDS011;50628;51.008;13.658;2022-07-29T19:22:10;8.15;;;3.65;;
64291;SDS011;50628;51.008;13.658;2022-07-29T19:27:13;5.90;;;2.97;;
64291;SDS011;50628;51.008;13.658;2022-07-29T19:32:16;5.95;;;3.55;;
64291;SDS011;50628;51.008;13.658;2022-07-29T19:37:18;10.40;;;6.60;;
64291;SDS011;50628;51.008;13.658;2022-07-29T19:42:19;9.52;;;3.60;;
64291;SDS011;50628;51.008;13.658;2022-07-29T19:47:23;7.68;;;3.75;;
64291;SDS011;50628;51.008;13.658;2022-07-29T19:52:24;9.38;;;3.75;;
64291;SDS011;50628;51.008;13.658;2022-07-29T19:57:26;7.03;;;3.90;;
64291;SDS011;50628;51.008;13.658;2022-07-29T20:02:30;7.70;;;4.40;;
64291;SDS011;50628;51.008;13.658;2022-07-29T20:07:31;5.53;;;3.42;;
64291;SDS011;50628;51.008;13.658;2022-07-29T20:12:34;8.35;;;3.70;;
64291;SDS011;50628;51.008;13.658;2022-07-29T20:17:39;9.50;;;3.45;;
64291;SDS011;50628;51.008;13.658;2022-07-29T20:22:41;4.45;;;3.45;;
64291;SDS011;50628;51.008;13.658;2022-07-29T20:27:43;15.02;;;4.53;;
64291;SDS011;50628;51.008;13.658;2022-07-29T20:32:47;8.63;;;3.63;;
64291;SDS011;50628;51.008;13.658;2022-07-29T20:42:52;5.75;;;3.60;;
64291;SDS011;50628;51.008;13.658;2022-07-29T20:47:55;10.20;;;3.88;;
64291;SDS011;50628;51.008;13.658;2022-07-29T20:52:57;9.82;;;3.92;;
64291;SDS011;50628;51.008;13.658;2022-07-29T20:57:59;9.52;;;4.57;;
64291;SDS011;50628;51.008;13.658;2022-07-29T21:03:02;6.85;;;4.03;;
64291;SDS011;50628;51.008;13.658;2022-07-29T21:08:04;7.20;;;3.85;;
64291;SDS011;50628;51.008;13.658;2022-07-29T21:13:06;9.57;;;3.83;;
64291;SDS011;50628;51.008;13.658;2022-07-29T21:18:09;5.80;;;3.03;;
64291;SDS011;50628;51.008;13.658;2022-07-29T21:23:26;6.07;;;3.60;;
64291;SDS011;50628;51.008;13.658;2022-07-29T21:28:29;10.68;;;3.67;;
64291;SDS011;50628;51.008;13.658;2022-07-29T21:33:37;6.72;;;3.75;;
64291;SDS011;50628;51.008;13.658;2022-07-29T21:38:39;10.18;;;4.30;;
64291;SDS011;50628;51.008;13.658;2022-07-29T21:43:42;8.52;;;3.97;;
64291;SDS011;50628;51.008;13.658;2022-07-29T21:48:45;12.30;;;4.13;;
64291;SDS011;50628;51.008;13.658;2022-07-29T21:53:46;6.72;;;4.43;;
64291;SDS011;50628;51.008;13.658;2022-07-29T21:58:49;7.30;;;3.92;;
64291;SDS011;50628;51.008;13.658;2022-07-29T22:03:52;13.25;;;4.28;;
64291;SDS011;50628;51.008;13.658;2022-07-29T22:08:54;10.23;;;3.78;;
64291;SDS011;50628;51.008;13.658;2022-07-29T22:13:56;4.10;;;3.67;;
64291;SDS011;50628;51.008;13.658;2022-07-29T22:18:59;10.13;;;3.78;;
64291;SDS011;50628;51.008;13.658;2022-07-29T22:24:03;14.70;;;3.95;;
64291;SDS011;50628;51.008;13.658;2022-07-29T22:29:04;9.23;;;3.45;;
64291;SDS011;50628;51.008;13.658;2022-07-29T22:34:08;8.52;;;3.78;;
64291;SDS011;50628;51.008;13.658;2022-07-29T22:39:12;9.32;;;3.85;;
64291;SDS011;50628;51.008;13.658;2022-07-29T22:44:14;12.35;;;3.67;;
64291;SDS011;50628;51.008;13.658;2022-07-29T22:49:17;6.00;;;2.95;;
64291;SDS011;50628;51.008;13.658;2022-07-29T22:54:18;7.78;;;3.70;;
64291;SDS011;50628;51.008;13.658;2022-07-29T22:59:20;17.10;;;3.85;;
64291;SDS011;50628;51.008;13.658;2022-07-29T23:04:23;11.50;;;3.83;;
64291;SDS011;50628;51.008;13.658;2022-07-29T23:09:25;19.65;;;4.25;;
64291;SDS011;50628;51.008;13.658;2022-07-29T23:14:27;9.93;;;3.97;;
64291;SDS011;50628;51.008;13.658;2022-07-29T23:19:30;14.82;;;4.18;;
64291;SDS011;50628;51.008;13.658;2022-07-29T23:24:31;6.57;;;3.50;;
64291;SDS011;50628;51.008;13.658;2022-07-29T23:29:33;7.68;;;4.88;;
64291;SDS011;50628;51.008;13.658;2022-07-29T23:34:36;10.02;;;7.15;;
64291;SDS011;50628;51.008;13.658;2022-07-29T23:39:38;9.02;;;5.38;;
64291;SDS011;50628;51.008;13.658;2022-07-29T23:44:40;5.93;;;4.13;;
64291;SDS011;50628;51.008;13.658;2022-07-29T23:49:43;6.00;;;4.40;;
64291;SDS011;50628;51.008;13.658;2022-07-29T23:54:45;6.50;;;4.22;;
64291;SDS011;50628;51.008;13.658;2022-07-29T23:59:47;5.78;;;3.80;;
